Airfield :
LOGIN :

Register | Disclaimer

   EN    FR    IT 

 










Legend :    VFR   Marginal VFR   IFR   Intensive IFR   Very Intensive IFR
Visi :
Ceiling :
>= 8 km
>= 3000ft
5 to 8 km
1000 to 3000 ft
1500m to 5 km
500 to 1000 ft
800 to 1500m
200 to 500 ft
< 800m
< 200 ft
Symbols :   Thunderstorms  Fog  Heavy snow  Heavy precipitations  Wind > 20 kt
SIGMETs :     Misc.  Thunderstorms  Icing  Turbulence  Mountain Waves  Volcanic Ashes






- Airport Elevation : 84 ft
- IATA code : KOK


EFKK - Kruunupyy

CURRENT METAR :
  • 131450Z AUTO 08005KT 9999 -RA OVC004 02/02 Q1006

EXPIRED METARs :
  • 131420Z AUTO 10005KT 070V130 9999 RA SCT003 OVC020 03/02 Q1006
  • 131350Z AUTO 10005KT 9999 -RA SCT003 OVC021 03/02 Q1006
  • 131320Z AUTO 10005KT 9999 -RA SCT003 OVC023 03/02 Q1006
  • 131250Z AUTO 11005KT 080V140 9999 -RA BKN003 OVC022 03/02 Q1007
  • 131220Z AUTO 12004KT 090V150 9999 -RA OVC003 03/02 Q1007

TAF TAF EFKK
Valid from the 13 at 15:00 until the 14 at 00:00 UTC


131437Z 1315/1324 13006KT 9999 BKN002
TEMPO 1315/1318 2500 RA BKN005
TEMPO 1318/1324 3000 BR



MET'MAP, your aeronautical weather chart ! - Copyright ORBIFLY December 2007 - Disclaimer

ORBIFLY MET'MAP TEAM :

Programming & Development : Alexandra Zaïnal
Concept & Development : Baudouin d'Aumeries
Co-Development & Prog : Marc-Olivier Méhu
Technical & hardware support : Manuel Goepfert

Contact : metmap@orbifly.com




SOURCES & CREDITS :

   NOAA